createdAt,value
2018-01-06T00:01:26.030Z,4.93
2018-01-06T00:03:54.401Z,4.70
2018-01-06T00:06:22.687Z,4.23
2018-01-06T00:08:51.007Z,4.30
2018-01-06T00:11:18.527Z,5.33
2018-01-06T00:13:46.759Z,6.27
2018-01-06T00:16:14.258Z,4.70
2018-01-06T00:18:42.566Z,2.90
2018-01-06T00:21:10.087Z,4.90
2018-01-06T00:23:38.395Z,2.00
2018-01-06T00:26:05.923Z,2.45
2018-01-06T00:28:34.167Z,3.07
2018-01-06T00:31:01.636Z,3.10
2018-01-06T00:33:29.142Z,2.20
2018-01-06T00:35:56.626Z,2.37
2018-01-06T00:38:24.096Z,3.27
2018-01-06T00:40:51.608Z,3.30
2018-01-06T00:43:19.080Z,3.20
2018-01-06T00:45:46.635Z,3.00
2018-01-06T00:48:14.158Z,3.63
2018-01-06T00:50:41.616Z,3.30
2018-01-06T00:53:10.743Z,3.77
2018-01-06T00:55:38.223Z,3.70
2018-01-06T00:58:05.740Z,2.93
2018-01-06T01:00:33.995Z,3.30
2018-01-06T01:03:01.504Z,3.00
2018-01-06T01:05:29.000Z,3.77
2018-01-06T01:07:56.490Z,3.93
2018-01-06T01:10:24.745Z,4.40
2018-01-06T01:12:52.225Z,5.60
2018-01-06T01:15:20.484Z,3.40
2018-01-06T01:17:47.945Z,3.37
2018-01-06T01:20:15.441Z,3.40
2018-01-06T01:22:42.917Z,3.20
2018-01-06T01:25:10.415Z,2.60
2018-01-06T01:27:37.872Z,3.30
2018-01-06T01:30:06.191Z,3.23
2018-01-06T01:32:33.653Z,3.20
2018-01-06T01:35:01.937Z,3.40
2018-01-06T01:37:29.412Z,3.95
2018-01-06T01:39:56.888Z,3.70
2018-01-06T01:42:24.379Z,3.43
2018-01-06T01:44:52.621Z,4.13
2018-01-06T01:47:20.081Z,4.00
2018-01-06T01:49:47.561Z,4.23
2018-01-06T01:52:15.870Z,3.20
2018-01-06T01:54:43.342Z,3.90
2018-01-06T01:57:10.806Z,4.60
2018-01-06T01:59:38.310Z,5.10
2018-01-06T02:02:06.550Z,4.30
2018-01-06T02:04:34.048Z,8.10
2018-01-06T02:07:02.273Z,5.50
2018-01-06T02:09:29.775Z,6.40
2018-01-06T02:11:58.003Z,5.77
2018-01-06T02:14:25.497Z,5.00
2018-01-06T02:16:52.974Z,11.03
2018-01-06T02:19:21.211Z,6.50
2018-01-06T02:21:48.785Z,7.50
2018-01-06T02:24:17.022Z,5.10
2018-01-06T02:26:44.520Z,7.27
2018-01-06T02:29:12.000Z,5.90
2018-01-06T02:31:40.246Z,5.60
2018-01-06T02:34:07.728Z,6.87
2018-01-06T02:36:35.984Z,8.90
2018-01-06T02:39:03.456Z,4.40
2018-01-06T02:41:30.932Z,4.70
2018-01-06T02:43:59.159Z,6.10
2018-01-06T02:46:26.639Z,6.87
2018-01-06T02:48:54.968Z,6.47
2018-01-06T02:51:22.440Z,6.10
2018-01-06T02:53:49.926Z,6.60
2018-01-06T02:56:17.406Z,6.87
2018-01-06T02:58:45.634Z,7.00
2018-01-06T03:01:13.132Z,7.17
2018-01-06T03:03:41.367Z,5.97
2018-01-06T03:06:08.858Z,7.53
2018-01-06T03:08:36.352Z,5.97
2018-01-06T03:11:03.823Z,6.30
2018-01-06T03:13:31.276Z,6.20
2018-01-06T03:15:59.682Z,5.60
2018-01-06T03:18:27.146Z,6.47
2018-01-06T03:20:54.774Z,6.83
2018-01-06T03:23:22.254Z,8.50
2018-01-06T03:25:49.736Z,6.77
2018-01-06T03:31:10.905Z,10.10
2018-01-06T03:33:38.373Z,15.90
2018-01-06T03:36:05.837Z,9.35
2018-01-06T03:38:33.311Z,13.60
2018-01-06T03:41:00.788Z,10.70
2018-01-06T03:43:28.281Z,14.40
2018-01-06T03:45:56.508Z,7.63
2018-01-06T03:48:24.829Z,10.40
2018-01-06T03:50:53.072Z,8.77
2018-01-06T03:53:20.549Z,7.43
2018-01-06T03:55:48.020Z,9.10
2018-01-06T03:58:15.747Z,9.80
2018-01-06T04:00:43.203Z,9.83
2018-01-06T04:03:10.684Z,10.97
2018-01-06T04:05:38.144Z,9.83
2018-01-06T04:08:05.638Z,8.80
2018-01-06T04:10:33.097Z,7.72
2018-01-06T04:13:00.580Z,9.37
2018-01-06T04:15:28.045Z,7.60
2018-01-06T04:17:55.530Z,7.83
2018-01-06T04:20:23.925Z,8.80
2018-01-06T04:22:52.171Z,9.57
2018-01-06T04:25:19.742Z,9.80
2018-01-06T04:27:47.227Z,9.47
2018-01-06T04:30:18.681Z,10.50
2018-01-06T04:32:46.155Z,7.22
2018-01-06T04:35:13.647Z,8.80
2018-01-06T04:37:41.119Z,8.03
2018-01-06T04:40:08.587Z,8.00
2018-01-06T04:42:36.064Z,6.55
2018-01-06T04:45:04.300Z,5.97
2018-01-06T04:47:31.809Z,7.23
2018-01-06T04:49:59.268Z,5.60
2018-01-06T04:52:26.746Z,6.40
2018-01-06T04:54:54.225Z,5.10
2018-01-06T04:57:21.705Z,6.97
2018-01-06T04:59:49.183Z,5.07
2018-01-06T05:02:17.429Z,5.60
2018-01-06T05:04:44.895Z,5.07
2018-01-06T05:07:12.363Z,6.23
2018-01-06T05:09:40.604Z,5.03
2018-01-06T05:12:08.067Z,5.00
2018-01-06T05:14:35.564Z,4.73
2018-01-06T05:17:03.816Z,5.25
2018-01-06T05:19:31.313Z,5.90
2018-01-06T05:21:58.786Z,6.20
2018-01-06T05:24:26.274Z,6.53
2018-01-06T05:26:53.764Z,6.30
2018-01-06T05:29:22.023Z,5.43
2018-01-06T05:31:49.493Z,5.40
2018-01-06T05:34:17.735Z,6.00
2018-01-06T05:36:45.201Z,8.43
2018-01-06T05:39:12.681Z,6.82
2018-01-06T05:41:40.912Z,6.23
2018-01-06T05:44:08.403Z,4.97
2018-01-06T05:46:35.868Z,6.00
2018-01-06T05:49:03.377Z,5.25
2018-01-06T05:51:30.851Z,8.83
2018-01-06T05:53:58.337Z,13.43
2018-01-06T05:56:25.804Z,10.87
2018-01-06T05:58:54.044Z,6.80
2018-01-06T06:01:21.512Z,7.40
2018-01-06T06:03:48.996Z,6.67
2018-01-06T06:06:17.240Z,6.20
2018-01-06T06:08:44.716Z,7.97
2018-01-06T06:11:12.220Z,7.23
2018-01-06T06:13:39.692Z,8.00
2018-01-06T06:16:07.188Z,6.97
2018-01-06T06:21:26.263Z,6.37
2018-01-06T06:23:53.732Z,7.60
2018-01-06T06:26:21.288Z,7.80
2018-01-06T06:28:49.522Z,7.80
2018-01-06T06:31:18.544Z,9.30
2018-01-06T06:33:46.007Z,8.87
2018-01-06T06:36:13.495Z,7.40
2018-01-06T06:38:41.719Z,9.80
2018-01-06T06:41:09.204Z,9.43
2018-01-06T06:43:36.678Z,7.45
2018-01-06T06:46:04.144Z,6.43
2018-01-06T06:48:32.402Z,4.07
2018-01-06T06:50:59.885Z,3.70
2018-01-06T06:53:28.107Z,3.13
2018-01-06T06:55:55.590Z,4.57
2018-01-06T06:58:23.060Z,6.87
2018-01-06T07:00:51.307Z,7.30
2018-01-06T07:03:18.763Z,6.27
2018-01-06T07:05:46.367Z,7.10
2018-01-06T07:08:14.630Z,7.50
2018-01-06T07:10:42.067Z,7.17
2018-01-06T07:13:09.543Z,12.03
2018-01-06T07:15:37.010Z,8.87
2018-01-06T07:18:05.652Z,9.73
2018-01-06T07:20:33.139Z,9.00
2018-01-06T07:23:01.373Z,8.60
2018-01-06T07:25:28.834Z,7.90
2018-01-06T07:27:56.311Z,8.40
2018-01-06T07:30:23.888Z,7.30
2018-01-06T07:32:51.343Z,8.47
2018-01-06T07:35:19.623Z,7.37
2018-01-06T07:37:47.096Z,8.80
2018-01-06T07:40:15.345Z,7.67
2018-01-06T07:42:43.584Z,8.57
2018-01-06T07:45:11.051Z,14.50
2018-01-06T07:47:38.528Z,23.07
2018-01-06T07:50:06.021Z,8.20
2018-01-06T07:52:34.272Z,8.63
2018-01-06T07:55:01.736Z,14.00
2018-01-06T07:57:29.233Z,13.07
2018-01-06T07:59:56.695Z,13.07
2018-01-06T08:02:24.167Z,13.70
2018-01-06T08:04:51.644Z,14.03
2018-01-06T08:07:19.114Z,11.63
2018-01-06T08:09:46.580Z,12.13
2018-01-06T08:12:14.061Z,7.07
2018-01-06T08:14:42.294Z,7.73
2018-01-06T08:17:09.800Z,7.20
2018-01-06T08:19:37.288Z,10.17
2018-01-06T08:22:04.751Z,9.40
2018-01-06T08:24:32.209Z,9.40
2018-01-06T08:26:59.716Z,11.37
2018-01-06T08:29:27.958Z,10.77
2018-01-06T08:31:55.447Z,10.30
2018-01-06T08:34:23.673Z,12.93
2018-01-06T08:36:51.156Z,16.73
2018-01-06T08:39:18.643Z,15.40
2018-01-06T08:41:46.910Z,14.60
2018-01-06T08:44:15.139Z,15.83
2018-01-06T08:46:42.619Z,18.20
2018-01-06T08:49:10.096Z,16.70
2018-01-06T08:51:38.340Z,15.33
2018-01-06T08:54:05.819Z,17.13
2018-01-06T08:56:33.296Z,14.20
2018-01-06T08:59:01.550Z,13.60
2018-01-06T09:01:29.043Z,14.27
2018-01-06T09:03:57.271Z,15.53
2018-01-06T09:06:24.772Z,16.73
2018-01-06T09:08:53.015Z,16.13
2018-01-06T09:11:20.488Z,17.00
2018-01-06T09:13:47.996Z,32.73
2018-01-06T09:16:15.464Z,32.90
2018-01-06T09:18:42.969Z,31.25
2018-01-06T09:21:11.212Z,19.17
2018-01-06T09:23:38.686Z,20.70
2018-01-06T09:26:06.170Z,14.60
2018-01-06T09:28:34.421Z,18.05
2018-01-06T09:31:01.892Z,14.70
2018-01-06T09:33:30.149Z,15.37
2018-01-06T09:35:57.625Z,13.70
2018-01-06T09:38:25.885Z,14.90
2018-01-06T09:40:53.364Z,19.00
2018-01-06T09:43:21.624Z,14.27
2018-01-06T09:45:49.882Z,16.80
2018-01-06T09:48:17.359Z,12.90
2018-01-06T09:50:44.827Z,15.10
2018-01-06T09:53:13.089Z,13.93
2018-01-06T09:55:40.560Z,15.50
2018-01-06T09:58:09.856Z,14.83
2018-01-06T10:00:38.091Z,14.43
2018-01-06T10:03:05.569Z,14.23
2018-01-06T10:05:33.054Z,11.70
2018-01-06T10:08:01.357Z,11.90
2018-01-06T10:10:28.824Z,13.53
2018-01-06T10:12:56.297Z,14.70
2018-01-06T10:15:23.758Z,11.40
2018-01-06T10:17:51.251Z,11.63
2018-01-06T10:20:18.721Z,10.50
2018-01-06T10:22:47.910Z,11.93
2018-01-06T10:25:15.394Z,14.67
2018-01-06T10:27:42.867Z,11.03
2018-01-06T10:30:10.344Z,10.40
2018-01-06T10:32:37.825Z,16.13
2018-01-06T10:35:05.311Z,10.10
2018-01-06T10:37:33.548Z,11.90
2018-01-06T10:40:01.042Z,11.33
2018-01-06T10:42:29.276Z,9.77
2018-01-06T10:44:56.777Z,15.10
2018-01-06T10:47:25.044Z,14.13
2018-01-06T10:49:53.295Z,13.17
2018-01-06T10:52:20.755Z,11.43
2018-01-06T10:54:49.011Z,14.17
2018-01-06T10:57:16.480Z,13.50
2018-01-06T10:59:43.969Z,12.40
2018-01-06T11:02:12.208Z,13.33
2018-01-06T11:04:39.690Z,13.50
2018-01-06T11:07:07.166Z,13.80
2018-01-06T11:09:35.986Z,16.40
2018-01-06T11:12:03.456Z,18.20
2018-01-06T11:14:30.960Z,20.07
2018-01-06T11:16:59.209Z,27.50
2018-01-06T11:19:26.687Z,25.73
2018-01-06T11:21:54.156Z,34.43
2018-01-06T11:24:22.417Z,15.33
2018-01-06T11:26:49.886Z,18.07
2018-01-06T11:29:18.140Z,11.85
2018-01-06T11:31:46.364Z,17.20
2018-01-06T11:34:13.847Z,15.23
2018-01-06T11:36:41.323Z,11.93
2018-01-06T11:39:08.803Z,11.50
2018-01-06T11:41:36.308Z,11.80
2018-01-06T11:44:03.768Z,9.80
2018-01-06T11:46:31.236Z,11.77
2018-01-06T11:48:58.725Z,11.43
2018-01-06T11:51:27.178Z,12.82
2018-01-06T11:53:54.643Z,14.77
2018-01-06T11:56:22.129Z,11.77
2018-01-06T11:58:49.579Z,9.53
2018-01-06T12:01:17.272Z,10.20
2018-01-06T12:03:45.503Z,9.47
2018-01-06T12:06:12.992Z,11.23
2018-01-06T12:08:42.245Z,8.73
2018-01-06T12:11:09.747Z,9.87
2018-01-06T12:13:38.004Z,9.73
2018-01-06T12:16:06.243Z,8.90
2018-01-06T12:18:33.712Z,9.37
2018-01-06T12:21:01.191Z,7.97
2018-01-06T12:23:29.579Z,8.20
2018-01-06T12:25:57.062Z,6.90
2018-01-06T12:28:25.286Z,8.23
2018-01-06T12:30:52.784Z,8.70
2018-01-06T12:33:20.248Z,6.70
2018-01-06T12:35:48.500Z,7.10
2018-01-06T12:38:15.958Z,9.40
2018-01-06T12:40:43.446Z,8.13
2018-01-06T12:43:12.612Z,7.10
2018-01-06T12:45:40.080Z,8.43
2018-01-06T12:48:07.572Z,8.90
2018-01-06T12:50:35.051Z,13.93
2018-01-06T12:53:02.520Z,6.60
2018-01-06T12:55:29.988Z,5.60
2018-01-06T12:58:09.858Z,6.40
2018-01-06T13:00:38.107Z,7.03
2018-01-06T13:03:05.585Z,6.23
2018-01-06T13:05:33.047Z,6.37
2018-01-06T13:08:00.532Z,6.47
2018-01-06T13:10:27.997Z,6.60
2018-01-06T13:12:55.492Z,4.90
2018-01-06T13:15:22.951Z,4.10
2018-01-06T13:17:51.226Z,4.60
2018-01-06T13:20:18.690Z,3.50
2018-01-06T13:22:46.173Z,3.80
2018-01-06T13:25:15.314Z,4.27
2018-01-06T13:27:42.796Z,4.10
2018-01-06T13:30:10.282Z,4.05
2018-01-06T13:32:37.748Z,4.60
2018-01-06T13:35:05.996Z,4.10
2018-01-06T13:37:33.482Z,4.60
2018-01-06T13:40:01.728Z,4.40
2018-01-06T13:42:29.201Z,3.80
2018-01-06T13:44:56.692Z,4.50
2018-01-06T13:47:24.203Z,3.20
2018-01-06T13:49:51.692Z,3.43
2018-01-06T13:52:19.939Z,3.92
2018-01-06T13:54:47.388Z,3.70
2018-01-06T13:57:14.864Z,4.60
2018-01-06T13:59:43.910Z,4.30
2018-01-06T14:02:12.184Z,3.97
2018-01-06T14:04:39.647Z,3.33
2018-01-06T14:07:07.106Z,4.43
2018-01-06T14:09:34.582Z,4.03
2018-01-06T14:12:02.050Z,3.73
2018-01-06T14:14:32.897Z,4.30
2018-01-06T14:17:00.362Z,5.53
2018-01-06T14:19:27.837Z,4.30
2018-01-06T14:21:56.087Z,4.33
2018-01-06T14:24:24.337Z,4.23
2018-01-06T14:26:51.836Z,4.50
2018-01-06T14:29:20.105Z,4.33
2018-01-06T14:31:47.613Z,5.50
2018-01-06T14:34:15.099Z,4.50
2018-01-06T14:36:42.726Z,4.60
2018-01-06T14:39:10.211Z,4.60
2018-01-06T14:41:37.712Z,4.90
2018-01-06T14:44:05.940Z,4.50
2018-01-06T14:46:33.411Z,4.20
2018-01-06T14:49:00.920Z,5.80
2018-01-06T14:51:29.140Z,5.80
2018-01-06T14:53:56.664Z,7.53
2018-01-06T14:56:25.168Z,6.73
2018-01-06T14:58:52.661Z,5.90
2018-01-06T15:01:20.157Z,7.10
2018-01-06T15:03:47.632Z,5.50
2018-01-06T15:06:15.097Z,4.97
2018-01-06T15:08:42.614Z,5.07
2018-01-06T15:11:10.832Z,4.80
2018-01-06T15:13:38.308Z,5.00
2018-01-06T15:16:05.821Z,4.40
2018-01-06T15:18:33.340Z,6.33
2018-01-06T15:21:00.868Z,7.10
2018-01-06T15:23:28.332Z,6.20
2018-01-06T15:25:58.290Z,6.10
2018-01-06T15:28:25.813Z,6.97
2018-01-06T15:30:53.306Z,5.75
2018-01-06T15:33:21.586Z,7.60
2018-01-06T15:35:49.877Z,5.63
2018-01-06T15:38:18.104Z,7.50
2018-01-06T15:40:45.590Z,8.23
2018-01-06T15:43:13.059Z,13.17
2018-01-06T15:45:41.337Z,10.30
2018-01-06T15:48:09.556Z,10.23
2018-01-06T15:50:37.077Z,11.60
2018-01-06T15:53:05.348Z,15.40
2018-01-06T15:55:34.149Z,21.27
2018-01-06T15:58:01.607Z,19.80
2018-01-06T16:00:29.111Z,15.40
2018-01-06T16:02:56.615Z,17.40
2018-01-06T16:05:24.879Z,20.50
2018-01-06T16:07:53.146Z,16.77
2018-01-06T16:10:20.653Z,21.00
2018-01-06T16:12:48.159Z,19.90
2018-01-06T16:15:15.669Z,19.57
2018-01-06T16:17:43.135Z,25.83
2018-01-06T16:20:10.607Z,17.37
2018-01-06T16:22:38.098Z,22.97
2018-01-06T16:25:06.385Z,14.20
2018-01-06T16:27:34.652Z,12.50
2018-01-06T16:30:02.947Z,10.20
2018-01-06T16:32:31.182Z,13.00
2018-01-06T16:34:58.758Z,10.10
2018-01-06T16:37:26.999Z,6.13
2018-01-06T16:39:54.535Z,9.30
2018-01-06T16:42:22.792Z,7.67
2018-01-06T16:44:54.024Z,8.37
2018-01-06T16:47:22.285Z,10.00
2018-01-06T16:49:49.763Z,9.97
2018-01-06T16:52:18.004Z,9.20
2018-01-06T16:54:45.480Z,8.87
2018-01-06T16:57:13.715Z,5.97
2018-01-06T16:59:41.179Z,6.10
2018-01-06T17:02:08.713Z,6.57
2018-01-06T17:04:36.285Z,6.40
2018-01-06T17:07:04.512Z,8.80
2018-01-06T17:09:32.691Z,4.90
2018-01-06T17:12:00.977Z,4.63
2018-01-06T17:14:29.199Z,5.47
2018-01-06T17:16:56.704Z,5.17
2018-01-06T17:19:24.932Z,5.60
2018-01-06T17:21:52.413Z,6.10
2018-01-06T17:24:19.896Z,6.20
2018-01-06T17:26:48.198Z,7.57
2018-01-06T17:29:15.694Z,14.67
2018-01-06T17:31:43.253Z,10.97
2018-01-06T17:34:10.735Z,10.57
2018-01-06T17:36:38.255Z,8.87
2018-01-06T17:39:06.756Z,7.60
2018-01-06T17:41:34.258Z,11.98
2018-01-06T17:44:02.596Z,12.23
2018-01-06T17:46:30.080Z,12.73
2018-01-06T17:48:58.344Z,14.73
2018-01-06T17:51:25.891Z,15.10
2018-01-06T17:53:53.463Z,16.20
2018-01-06T17:56:20.985Z,15.03
2018-01-06T17:58:48.451Z,17.17
2018-01-06T18:01:15.970Z,17.73
2018-01-06T18:03:43.505Z,22.63
2018-01-06T18:06:10.976Z,23.87
2018-01-06T18:08:39.279Z,24.30
2018-01-06T18:11:06.828Z,23.20
2018-01-06T18:13:34.359Z,24.37
2018-01-06T18:16:02.596Z,22.93
2018-01-06T18:18:30.119Z,30.03
2018-01-06T18:20:57.648Z,32.93
2018-01-06T18:23:25.137Z,38.27
2018-01-06T18:25:52.662Z,38.67
2018-01-06T18:28:20.203Z,39.40
2018-01-06T18:30:47.695Z,34.70
2018-01-06T18:33:15.952Z,31.87
2018-01-06T18:35:44.211Z,33.20
2018-01-06T18:38:11.744Z,31.63
2018-01-06T18:40:39.273Z,26.40
2018-01-06T18:43:07.525Z,29.90
2018-01-06T18:45:38.728Z,27.83
2018-01-06T18:48:06.281Z,25.37
2018-01-06T18:50:33.803Z,23.20
2018-01-06T18:53:02.107Z,24.50
2018-01-06T18:55:29.668Z,29.90
2018-01-06T18:57:58.547Z,34.53
2018-01-06T19:00:26.084Z,46.63
2018-01-06T19:02:54.393Z,42.40
2018-01-06T19:05:21.902Z,31.27
2018-01-06T19:07:49.430Z,34.87
2018-01-06T19:10:16.947Z,27.70
2018-01-06T19:12:45.251Z,24.83
2018-01-06T19:15:12.721Z,25.77
2018-01-06T19:17:40.229Z,29.23
2018-01-06T19:20:08.533Z,26.87
2018-01-06T19:22:37.603Z,25.70
2018-01-06T19:25:05.896Z,28.63
2018-01-06T19:27:33.382Z,23.93
2018-01-06T19:30:00.924Z,22.93
2018-01-06T19:32:28.456Z,25.93
2018-01-06T19:34:56.741Z,21.93
2018-01-06T19:37:25.032Z,19.70
2018-01-06T19:39:52.604Z,21.50
2018-01-06T19:42:20.137Z,18.00
2018-01-06T19:44:48.436Z,19.73
2018-01-06T19:47:15.965Z,19.67
2018-01-06T19:49:44.260Z,21.70
2018-01-06T19:52:13.736Z,23.03
2018-01-06T19:54:42.044Z,22.67
2018-01-06T19:57:09.573Z,23.80
2018-01-06T19:59:37.908Z,24.00
2018-01-06T20:02:05.430Z,28.70
2018-01-06T20:04:32.968Z,27.08
2018-01-06T20:07:00.485Z,25.47
2018-01-06T20:12:59.833Z,24.50
2018-01-06T20:15:28.856Z,22.87
2018-01-06T20:17:57.139Z,21.20
2018-01-06T20:20:25.438Z,17.27
2018-01-06T20:22:52.965Z,19.97
2018-01-06T20:25:21.267Z,17.67
2018-01-06T20:27:48.783Z,19.40
2018-01-06T20:30:16.310Z,24.43
2018-01-06T20:32:43.863Z,19.43
2018-01-06T20:35:11.517Z,20.47
2018-01-06T20:37:39.030Z,18.03
2018-01-06T20:40:06.574Z,20.00
2018-01-06T20:42:34.192Z,22.17
2018-01-06T20:45:01.743Z,21.97
2018-01-06T20:47:29.261Z,17.93
2018-01-06T20:49:57.600Z,18.80
2018-01-06T20:52:25.128Z,20.00
2018-01-06T20:54:52.712Z,18.23
2018-01-06T20:57:20.240Z,18.57
2018-01-06T20:59:48.545Z,19.27
2018-01-06T21:02:16.049Z,17.40
2018-01-06T21:04:43.673Z,17.47
2018-01-06T21:07:11.228Z,18.20
2018-01-06T21:09:38.769Z,20.23
2018-01-06T21:12:06.287Z,21.30
2018-01-06T21:14:34.575Z,17.40
2018-01-06T21:17:02.901Z,19.67
2018-01-06T21:19:30.455Z,17.37
2018-01-06T21:21:58.019Z,16.27
2018-01-06T21:24:25.550Z,19.43
2018-01-06T21:26:53.837Z,18.25
2018-01-06T21:29:21.365Z,17.30
2018-01-06T21:31:48.895Z,19.30
2018-01-06T21:34:16.414Z,17.40
2018-01-06T21:36:44.718Z,18.70
2018-01-06T21:39:12.254Z,19.90
2018-01-06T21:41:39.798Z,19.50
2018-01-06T21:44:08.080Z,22.17
2018-01-06T21:46:35.609Z,20.30
2018-01-06T21:49:03.153Z,19.80
2018-01-06T21:51:30.694Z,21.57
2018-01-06T21:53:58.989Z,25.30
2018-01-06T21:56:26.545Z,22.33
2018-01-06T21:58:55.579Z,23.45
2018-01-06T22:01:23.876Z,20.20
2018-01-06T22:03:51.390Z,19.17
2018-01-06T22:06:18.955Z,20.87
2018-01-06T22:08:47.243Z,18.67
2018-01-06T22:11:15.555Z,24.02
2018-01-06T22:13:43.842Z,24.37
2018-01-06T22:16:11.364Z,25.63
2018-01-06T22:18:39.674Z,23.50
2018-01-06T22:21:07.225Z,22.80
2018-01-06T22:23:34.771Z,21.40
2018-01-06T22:26:02.336Z,21.93
2018-01-06T22:28:30.620Z,25.13
2018-01-06T22:30:58.156Z,23.17
2018-01-06T22:33:27.290Z,25.55
2018-01-06T22:35:54.824Z,28.23
2018-01-06T22:38:23.112Z,24.93
2018-01-06T22:40:50.618Z,30.80
2018-01-06T22:43:18.958Z,26.65
2018-01-06T22:45:46.483Z,24.37
2018-01-06T22:48:15.693Z,26.73
2018-01-06T22:50:43.222Z,26.70
2018-01-06T22:53:10.759Z,31.63
2018-01-06T22:55:38.283Z,26.80
2018-01-06T23:10:59.163Z,35.40
2018-01-06T23:13:26.704Z,32.58
2018-01-06T23:15:55.000Z,25.27
2018-01-06T23:18:22.563Z,32.27
2018-01-06T23:20:50.071Z,23.60
2018-01-06T23:23:17.610Z,23.60
2018-01-06T23:25:45.125Z,24.13
2018-01-06T23:28:12.680Z,20.10
2018-01-06T23:30:40.976Z,23.53
2018-01-06T23:33:08.507Z,28.50
2018-01-06T23:35:36.795Z,21.70
2018-01-06T23:38:05.098Z,23.93
2018-01-06T23:40:32.610Z,22.73
2018-01-06T23:43:01.094Z,19.97
2018-01-06T23:45:30.319Z,21.70
2018-01-06T23:47:57.851Z,20.80
2018-01-06T23:50:25.358Z,18.00
2018-01-06T23:52:52.870Z,19.57
2018-01-06T23:55:20.385Z,21.80
2018-01-06T23:57:47.903Z,21.20
